Time;durP1;ratioP1;P1;durP2;ratioP2;P2;SDS_P1;SDS_P2;PMS_P1;PMS_P2;Temp;Humidity;BMP_temperature;BMP_pressure;BME280_temperature;BME280_humidity;BME280_pressure;Samples;Min_cycle;Max_cycle;Signal;HPM_P1;HPM_P2
2021/01/24 00:00:10;;;;;;;11.93;8.10;;;5.70;71.10;;;;;;4903362;28;92915;-70
2021/01/24 00:02:38;;;;;;;14.67;8.20;;;5.70;71.20;;;;;;4883263;28;91935;-71
2021/01/24 00:05:06;;;;;;;11.73;8.17;;;5.70;71.40;;;;;;4886586;28;92137;-71
2021/01/24 00:07:32;;;;;;;10.43;7.87;;;5.70;71.70;;;;;;4885020;28;96670;-71
2021/01/24 00:09:57;;;;;;;11.73;7.67;;;5.70;71.50;;;;;;4886095;28;94252;-71
2021/01/24 00:12:23;;;;;;;11.33;7.90;;;5.70;71.40;;;;;;4869687;28;91961;-71
2021/01/24 00:14:49;;;;;;;12.40;7.37;;;5.70;71.40;;;;;;4885985;28;92171;-71
2021/01/24 00:17:15;;;;;;;14.57;7.53;;;5.70;71.60;;;;;;4885216;28;96818;-71
2021/01/24 00:19:41;;;;;;;11.60;7.43;;;5.60;71.90;;;;;;4868751;28;96727;-71
2021/01/24 00:22:07;;;;;;;10.83;7.57;;;5.60;72.10;;;;;;4886091;28;91950;-71
2021/01/24 00:24:33;;;;;;;10.77;8.13;;;5.50;72.20;;;;;;4902519;28;92169;-71
2021/01/24 00:26:58;;;;;;;12.23;8.17;;;5.50;72.40;;;;;;4885593;28;95782;-71
2021/01/24 00:29:24;;;;;;;14.03;8.93;;;5.50;72.60;;;;;;4901751;28;92508;-71
2021/01/24 00:31:50;;;;;;;12.33;8.00;;;5.50;72.80;;;;;;4885649;28;92056;-71
2021/01/24 00:34:16;;;;;;;10.10;8.13;;;5.50;72.80;;;;;;4886023;28;91341;-71
2021/01/24 00:36:42;;;;;;;10.97;7.83;;;5.50;72.90;;;;;;4868854;28;96049;-71
2021/01/24 00:39:08;;;;;;;11.20;8.63;;;5.40;73.10;;;;;;4885364;28;96070;-71
2021/01/24 00:41:34;;;;;;;11.63;8.60;;;5.40;73.30;;;;;;4901926;28;93578;-71
2021/01/24 00:44:00;;;;;;;10.57;8.23;;;5.40;73.40;;;;;;4885947;28;92421;-71
2021/01/24 00:46:26;;;;;;;11.60;8.57;;;5.40;73.50;;;;;;4884765;28;93399;-71
2021/01/24 00:48:52;;;;;;;12.00;8.60;;;5.50;73.50;;;;;;4885495;28;93163;-71
2021/01/24 00:51:19;;;;;;;14.17;8.53;;;5.40;73.30;;;;;;4869986;28;92624;-71
2021/01/24 00:53:46;;;;;;;9.70;7.60;;;5.40;73.40;;;;;;4883771;28;92007;-71
2021/01/24 00:56:12;;;;;;;12.03;9.10;;;5.50;73.50;;;;;;4885673;28;92663;-71
2021/01/24 00:58:37;;;;;;;12.43;8.13;;;5.40;73.70;;;;;;4868895;28;95867;-71
2021/01/24 01:01:04;;;;;;;10.17;7.50;;;5.40;73.70;;;;;;4885472;28;92056;-71
2021/01/24 01:03:29;;;;;;;12.67;8.57;;;5.40;73.80;;;;;;4901957;28;92117;-71
2021/01/24 01:05:55;;;;;;;11.40;8.47;;;5.40;74.20;;;;;;4884714;28;94134;-71
2021/01/24 01:08:21;;;;;;;10.83;8.60;;;5.30;74.10;;;;;;4902100;28;93419;-71
2021/01/24 01:10:47;;;;;;;13.50;9.20;;;5.40;74.10;;;;;;4884827;28;91825;-71
2021/01/24 01:13:13;;;;;;;11.63;8.80;;;5.40;74.10;;;;;;4885478;28;92134;-71
2021/01/24 01:15:39;;;;;;;14.87;9.93;;;5.50;73.90;;;;;;4884026;28;96652;-71
2021/01/24 01:18:05;;;;;;;14.17;10.20;;;5.50;73.70;;;;;;4868969;28;95296;-71
2021/01/24 01:20:31;;;;;;;14.63;10.00;;;5.50;73.60;;;;;;4918241;28;92169;-71
2021/01/24 01:22:56;;;;;;;15.20;11.33;;;5.60;73.50;;;;;;4888110;28;91385;-71
2021/01/24 01:25:23;;;;;;;18.70;11.70;;;5.60;73.70;;;;;;4920557;28;93310;-71
2021/01/24 01:27:48;;;;;;;15.60;10.30;;;5.60;74.00;;;;;;4903039;28;92656;-71
2021/01/24 01:30:16;;;;;;;16.80;12.03;;;5.60;73.80;;;;;;4902864;28;93030;-71
2021/01/24 01:32:42;;;;;;;15.90;11.50;;;5.60;73.60;;;;;;4902812;28;92182;-71
2021/01/24 01:35:09;;;;;;;14.27;10.27;;;5.60;73.70;;;;;;4902966;28;96373;-71
2021/01/24 01:37:35;;;;;;;15.80;10.30;;;5.60;73.80;;;;;;4886223;28;96258;-71
2021/01/24 01:40:00;;;;;;;12.03;8.70;;;5.60;73.90;;;;;;4903256;28;92538;-71
2021/01/24 01:42:26;;;;;;;8.10;6.57;;;5.70;74.10;;;;;;4887380;28;92397;-71
2021/01/24 01:44:52;;;;;;;9.80;7.30;;;5.60;73.80;;;;;;4888395;28;97245;-74
2021/01/24 01:47:23;;;;;;;7.40;6.43;;;5.60;73.50;;;;;;4906749;28;96112;-71
2021/01/24 01:49:59;;;;;;;7.93;5.87;;;5.60;73.60;;;;;;4890521;28;91878;-71
2021/01/24 01:52:29;;;;;;;12.13;8.80;;;5.50;73.70;;;;;;4887739;28;93018;-71
2021/01/24 01:54:56;;;;;;;11.97;9.13;;;5.50;74.00;;;;;;4902920;28;97802;-71
2021/01/24 01:57:24;;;;;;;10.57;7.37;;;5.50;74.20;;;;;;4903583;28;94199;-71
2021/01/24 01:59:51;;;;;;;9.07;6.40;;;5.50;74.20;;;;;;4903181;28;91929;-71
2021/01/24 02:02:25;;;;;;;10.10;7.00;;;5.60;73.90;;;;;;4903758;28;92089;-71
2021/01/24 02:05:09;;;;;;;8.90;7.30;;;5.60;74.00;;;;;;4886732;28;97286;-71
2021/01/24 02:07:35;;;;;;;10.27;7.50;;;5.60;74.20;;;;;;4902869;28;92403;-71
2021/01/24 02:10:31;;;;;;;9.90;7.70;;;5.60;73.80;;;;;;4902874;28;92702;-71
2021/01/24 02:13:00;;;;;;;11.87;8.57;;;5.70;73.80;;;;;;4843616;28;91624;-71
2021/01/24 02:15:27;;;;;;;11.73;9.30;;;5.70;73.80;;;;;;4903126;28;96394;-71
2021/01/24 02:18:01;;;;;;;14.93;10.63;;;5.70;73.70;;;;;;4902739;28;96443;-71
2021/01/24 02:20:40;;;;;;;13.07;10.50;;;5.70;74.00;;;;;;4884500;28;92936;-71
2021/01/24 02:23:09;;;;;;;18.20;10.90;;;5.70;74.20;;;;;;4867772;28;91995;-70
2021/01/24 02:25:59;;;;;;;14.73;10.17;;;5.60;74.00;;;;;;4882548;28;92862;-71
2021/01/24 02:29:07;;;;;;;12.40;9.87;;;5.70;74.40;;;;;;4883130;28;96376;-70
2021/01/24 02:31:33;;;;;;;16.87;11.43;;;5.70;74.70;;;;;;4840702;28;92013;-70
2021/01/24 02:34:01;;;;;;;12.07;10.07;;;5.70;74.20;;;;;;4883349;28;92026;-71
2021/01/24 02:36:28;;;;;;;16.20;10.63;;;5.60;74.60;;;;;;4867312;28;96831;-71
2021/01/24 02:38:57;;;;;;;12.60;9.47;;;5.60;74.60;;;;;;4867209;28;96451;-71
2021/01/24 02:41:25;;;;;;;14.70;10.77;;;5.60;74.80;;;;;;4884224;28;92747;-71
2021/01/24 02:43:52;;;;;;;14.57;10.90;;;5.60;75.00;;;;;;4899793;28;92580;-71
2021/01/24 02:46:18;;;;;;;14.80;10.50;;;5.60;75.10;;;;;;4899815;28;93668;-71
2021/01/24 02:48:45;;;;;;;14.90;10.53;;;5.60;75.10;;;;;;4897857;28;96902;-71
2021/01/24 02:51:13;;;;;;;14.90;10.07;;;5.60;75.20;;;;;;4883165;28;92169;-71
2021/01/24 02:53:39;;;;;;;16.87;11.33;;;5.50;75.30;;;;;;4899634;28;92106;-71
2021/01/24 02:56:07;;;;;;;15.43;11.93;;;5.50;75.40;;;;;;4900401;28;92732;-71
2021/01/24 02:58:33;;;;;;;18.20;11.30;;;5.50;75.90;;;;;;4882400;28;92579;-71
2021/01/24 03:00:58;;;;;;;19.00;12.63;;;5.40;76.00;;;;;;4882540;28;92022;-71
2021/01/24 03:03:25;;;;;;;15.53;12.33;;;5.30;76.20;;;;;;4867641;28;91722;-71
2021/01/24 03:05:51;;;;;;;16.77;12.63;;;5.40;76.50;;;;;;4882244;28;93289;-71
2021/01/24 03:08:18;;;;;;;17.73;13.20;;;5.30;76.60;;;;;;4866807;28;96166;-71
2021/01/24 03:10:44;;;;;;;16.50;12.97;;;5.40;76.80;;;;;;4899041;28;93192;-71
2021/01/24 03:13:25;;;;;;;16.90;12.67;;;5.30;77.00;;;;;;4900291;28;92752;-71
2021/01/24 03:15:53;;;;;;;16.27;11.60;;;5.30;77.00;;;;;;4881886;28;96949;-71
2021/01/24 03:18:27;;;;;;;18.47;13.07;;;5.30;77.10;;;;;;4885523;28;96075;-70
2021/01/24 03:20:55;;;;;;;14.77;11.13;;;5.30;77.10;;;;;;4904536;28;91977;-71
2021/01/24 03:23:22;;;;;;;14.83;11.63;;;5.30;77.30;;;;;;4905586;28;92106;-71
2021/01/24 03:25:49;;;;;;;14.80;11.63;;;5.30;77.50;;;;;;4921598;28;91825;-71
2021/01/24 03:28:16;;;;;;;15.57;10.90;;;5.30;77.50;;;;;;4889291;28;96084;-71
2021/01/24 03:30:42;;;;;;;13.30;10.67;;;5.20;77.70;;;;;;4888538;28;92338;-71
2021/01/24 03:33:08;;;;;;;13.70;10.47;;;5.20;77.80;;;;;;4905421;28;92205;-71
2021/01/24 03:35:34;;;;;;;15.13;10.53;;;5.10;78.10;;;;;;4921481;28;94100;-71
2021/01/24 03:38:00;;;;;;;15.70;11.90;;;5.10;78.40;;;;;;4904503;28;97054;-71
2021/01/24 03:40:26;;;;;;;14.93;11.60;;;5.10;78.60;;;;;;4889171;28;92174;-71
2021/01/24 03:42:52;;;;;;;15.83;11.23;;;5.10;78.60;;;;;;4921827;28;92093;-71
2021/01/24 03:45:18;;;;;;;16.10;11.30;;;5.10;78.50;;;;;;4888844;28;96365;-71
2021/01/24 03:47:44;;;;;;;13.83;11.07;;;5.20;78.70;;;;;;4903827;28;96231;-71
2021/01/24 03:50:11;;;;;;;15.13;11.80;;;5.10;78.80;;;;;;4904285;28;92302;-71
2021/01/24 03:52:36;;;;;;;17.20;11.70;;;5.10;79.00;;;;;;4904884;28;91802;-71
2021/01/24 03:55:04;;;;;;;15.87;13.00;;;5.10;79.20;;;;;;4904433;28;96565;-71
2021/01/24 03:57:30;;;;;;;16.60;12.57;;;5.10;79.50;;;;;;4921796;28;94561;-71
2021/01/24 03:59:56;;;;;;;16.10;11.90;;;5.10;79.40;;;;;;4903804;28;92961;-71
2021/01/24 04:02:22;;;;;;;14.17;11.13;;;5.10;79.40;;;;;;4922311;28;91904;-71
2021/01/24 04:04:48;;;;;;;18.60;11.30;;;5.10;79.50;;;;;;4921083;28;92750;-71
2021/01/24 04:07:15;;;;;;;14.77;11.50;;;5.10;79.90;;;;;;4904357;28;96090;-71
2021/01/24 04:09:42;;;;;;;14.27;11.30;;;5.10;79.80;;;;;;4921268;28;91932;-71
2021/01/24 04:12:08;;;;;;;13.40;10.40;;;5.00;79.70;;;;;;4904842;28;92139;-71
2021/01/24 04:14:34;;;;;;;13.73;10.40;;;5.10;79.70;;;;;;4904516;28;91966;-71
2021/01/24 04:17:00;;;;;;;11.13;9.13;;;5.00;79.30;;;;;;4921382;28;93973;-71
2021/01/24 04:19:26;;;;;;;12.77;9.43;;;4.90;79.70;;;;;;4888739;28;92030;-71
2021/01/24 04:21:52;;;;;;;13.33;9.43;;;4.90;80.00;;;;;;4904511;28;92079;-71
2021/01/24 04:24:18;;;;;;;15.20;10.17;;;4.90;80.10;;;;;;4904203;28;97012;-71
2021/01/24 04:26:44;;;;;;;11.30;8.97;;;5.00;80.10;;;;;;4903245;28;96738;-71
2021/01/24 04:29:09;;;;;;;12.13;9.83;;;5.00;80.20;;;;;;4904755;28;92214;-71
2021/01/24 04:31:35;;;;;;;11.90;9.53;;;5.00;80.00;;;;;;4922422;28;92192;-71
2021/01/24 04:34:01;;;;;;;11.33;9.70;;;5.00;80.00;;;;;;4887967;28;95793;-71
2021/01/24 04:36:27;;;;;;;14.43;10.30;;;5.10;79.90;;;;;;4905138;28;92384;-71
2021/01/24 04:38:53;;;;;;;12.30;10.03;;;5.10;79.90;;;;;;4887572;28;92439;-71
2021/01/24 04:41:19;;;;;;;12.50;10.13;;;5.10;80.10;;;;;;4903894;28;91799;-71
2021/01/24 04:43:49;;;;;;;12.27;10.03;;;5.00;80.20;;;;;;4920494;28;93193;-71
2021/01/24 04:46:15;;;;;;;11.27;9.83;;;5.00;79.90;;;;;;4903792;28;96463;-71
2021/01/24 04:48:41;;;;;;;11.17;9.30;;;5.00;79.90;;;;;;4903563;28;92949;-71
2021/01/24 04:51:07;;;;;;;13.60;10.07;;;5.00;80.00;;;;;;4904942;28;92125;-71
2021/01/24 04:53:33;;;;;;;12.70;10.77;;;5.00;80.30;;;;;;4903655;28;96840;-71
2021/01/24 04:56:01;;;;;;;12.53;10.40;;;5.00;80.50;;;;;;4886984;28;96395;-71
2021/01/24 04:58:28;;;;;;;12.27;10.13;;;5.00;80.60;;;;;;4903952;28;91862;-71
2021/01/24 05:00:54;;;;;;;11.33;9.67;;;5.10;80.50;;;;;;4903122;28;92306;-71
2021/01/24 05:03:20;;;;;;;11.27;9.83;;;5.10;80.20;;;;;;4888324;28;96342;-71
2021/01/24 05:05:46;;;;;;;10.40;9.30;;;5.10;80.10;;;;;;4903630;28;94789;-71
2021/01/24 05:08:12;;;;;;;14.93;10.77;;;5.10;80.10;;;;;;4904508;28;92110;-71
2021/01/24 05:10:38;;;;;;;13.67;10.43;;;5.10;79.80;;;;;;4921190;28;92225;-71
2021/01/24 05:13:04;;;;;;;12.43;9.97;;;5.10;79.50;;;;;;4901780;28;97236;-71
2021/01/24 05:15:31;;;;;;;13.63;10.77;;;5.10;79.40;;;;;;4887456;28;97415;-71
2021/01/24 05:17:59;;;;;;;13.10;10.43;;;5.10;79.30;;;;;;4902824;28;92433;-71
2021/01/24 05:20:27;;;;;;;11.40;9.10;;;5.10;79.30;;;;;;4887146;28;93723;-72
2021/01/24 05:22:56;;;;;;;13.27;9.67;;;5.00;79.10;;;;;;4908079;28;96069;-72
2021/01/24 05:25:26;;;;;;;12.70;9.50;;;5.00;79.20;;;;;;4926228;28;93065;-71
2021/01/24 05:27:52;;;;;;;12.47;10.40;;;5.00;79.40;;;;;;4922077;28;92054;-71
2021/01/24 05:30:36;;;;;;;13.07;10.80;;;5.10;79.50;;;;;;4903307;28;91381;-71
2021/01/24 05:33:02;;;;;;;14.90;11.37;;;5.10;79.50;;;;;;4902381;28;96238;-71
2021/01/24 05:35:28;;;;;;;12.37;10.73;;;5.10;79.00;;;;;;4887105;28;96704;-71
2021/01/24 05:37:54;;;;;;;12.93;10.73;;;5.10;79.00;;;;;;4902405;28;93037;-71
2021/01/24 05:40:20;;;;;;;13.57;11.33;;;5.20;78.90;;;;;;4920185;28;92110;-71
2021/01/24 05:42:46;;;;;;;14.23;11.70;;;5.20;79.10;;;;;;4920022;28;92620;-73
2021/01/24 05:45:18;;;;;;;14.43;11.20;;;5.30;79.40;;;;;;4902913;28;95865;-71
2021/01/24 05:47:45;;;;;;;16.17;11.97;;;5.20;79.50;;;;;;4886993;28;92012;-71
2021/01/24 05:50:14;;;;;;;15.43;13.40;;;5.10;79.60;;;;;;4903085;28;92071;-71
2021/01/24 05:52:48;;;;;;;20.70;15.90;;;5.10;80.80;;;;;;4903043;28;93392;-71
2021/01/24 05:55:34;;;;;;;25.60;20.00;;;5.10;80.70;;;;;;4887227;28;96111;-71
2021/01/24 05:58:13;;;;;;;29.53;21.97;;;5.00;80.80;;;;;;4902310;28;92195;-71
2021/01/24 06:00:42;;;;;;;31.50;22.13;;;5.10;80.90;;;;;;4903104;28;91980;-71
2021/01/24 06:03:10;;;;;;;27.00;20.27;;;5.10;81.00;;;;;;4901654;28;95011;-71
2021/01/24 06:05:37;;;;;;;26.47;20.60;;;5.00;81.00;;;;;;4919893;28;93901;-71
2021/01/24 06:08:04;;;;;;;27.70;21.00;;;5.00;81.00;;;;;;4886134;28;92671;-71
2021/01/24 06:10:30;;;;;;;30.63;20.60;;;5.00;80.90;;;;;;4902709;28;92183;-71
2021/01/24 06:13:02;;;;;;;33.10;22.40;;;5.00;80.90;;;;;;4901894;28;93466;-71
2021/01/24 06:15:29;;;;;;;33.00;23.90;;;5.00;81.10;;;;;;4886611;28;96027;-71
2021/01/24 06:18:00;;;;;;;35.20;22.87;;;5.10;81.00;;;;;;4919706;28;91939;-71
2021/01/24 06:20:51;;;;;;;31.97;24.63;;;5.00;80.90;;;;;;4902258;28;91793;-71
2021/01/24 06:23:27;;;;;;;33.63;23.57;;;5.00;81.00;;;;;;4891268;28;95823;-71
2021/01/24 06:26:02;;;;;;;33.20;24.13;;;5.10;80.90;;;;;;4919237;28;92153;-71
2021/01/24 06:28:35;;;;;;;32.87;22.63;;;5.10;80.80;;;;;;4902459;28;92860;-71
2021/01/24 06:31:01;;;;;;;29.70;22.13;;;5.10;80.80;;;;;;4886155;28;92056;-71
2021/01/24 06:33:27;;;;;;;29.33;20.73;;;5.10;80.80;;;;;;4902521;28;93374;-71
2021/01/24 06:36:02;;;;;;;28.73;21.83;;;5.00;81.10;;;;;;4901303;28;94730;-71
2021/01/24 06:38:44;;;;;;;30.10;21.67;;;5.00;81.10;;;;;;4902361;28;91959;-71
2021/01/24 06:41:12;;;;;;;26.90;20.83;;;5.10;81.20;;;;;;4885730;28;92110;-71
2021/01/24 06:43:43;;;;;;;29.57;21.73;;;5.00;81.10;;;;;;4919432;28;93341;-71
2021/01/24 06:46:32;;;;;;;33.97;22.23;;;5.00;81.20;;;;;;4902014;28;93355;-71
2021/01/24 06:48:58;;;;;;;30.73;23.33;;;5.00;81.10;;;;;;4901018;28;92286;-71
2021/01/24 06:51:39;;;;;;;99.23;47.20;;;5.00;81.10;;;;;;4901450;28;92163;-71
2021/01/24 06:54:29;;;;;;;75.53;37.37;;;5.00;80.90;;;;;;4900576;28;97305;-71
2021/01/24 06:57:09;;;;;;;52.13;30.70;;;5.00;81.00;;;;;;4901195;28;95357;-71
2021/01/24 06:59:35;;;;;;;38.97;24.83;;;5.00;81.30;;;;;;4919777;28;91976;-71
2021/01/24 07:02:29;;;;;;;43.97;28.47;;;5.00;81.00;;;;;;4885407;28;91901;-71
2021/01/24 07:05:17;;;;;;;38.67;24.73;;;5.00;81.10;;;;;;4918358;28;92990;-71
2021/01/24 07:07:47;;;;;;;36.50;22.73;;;5.00;80.60;;;;;;4901817;28;96222;-71
2021/01/24 07:10:38;;;;;;;54.40;34.17;;;5.00;81.10;;;;;;4900784;28;92088;-71
2021/01/24 07:13:30;;;;;;;54.60;38.60;;;5.10;80.40;;;;;;4919046;28;91402;-71
2021/01/24 07:15:57;;;;;;;;;;;5.00;80.20;;;;;;4897534;28;96892;-71
2021/01/24 07:18:24;;;;;;;30.47;21.87;;;5.00;80.70;;;;;;4921090;28;92668;-71
2021/01/24 07:20:54;;;;;;;30.13;22.77;;;4.90;80.60;;;;;;4885292;28;93177;-71
2021/01/24 07:23:20;;;;;;;35.40;25.40;;;4.90;80.80;;;;;;4902106;28;92058;-71
2021/01/24 07:25:46;;;;;;;34.07;24.87;;;4.90;80.80;;;;;;4901148;28;95675;-71
2021/01/24 07:28:15;;;;;;;31.93;24.30;;;4.90;81.00;;;;;;4900758;28;94863;-71
2021/01/24 07:30:41;;;;;;;28.90;20.70;;;4.90;81.10;;;;;;4902078;28;92124;-71
2021/01/24 07:33:08;;;;;;;26.13;20.77;;;4.90;81.00;;;;;;4901166;28;92040;-71
2021/01/24 07:35:35;;;;;;;29.83;21.07;;;4.90;80.90;;;;;;4885535;28;96834;-71
2021/01/24 07:38:01;;;;;;;28.90;21.50;;;4.90;80.90;;;;;;4900988;28;96256;-71
2021/01/24 07:40:28;;;;;;;27.97;21.07;;;4.90;80.80;;;;;;4885772;28;92337;-71
2021/01/24 07:42:55;;;;;;;21.60;16.30;;;4.90;80.80;;;;;;4885224;28;92574;-71
2021/01/24 07:45:22;;;;;;;22.20;17.47;;;4.90;81.00;;;;;;4901066;28;94601;-71
2021/01/24 07:47:48;;;;;;;23.13;17.83;;;4.80;81.20;;;;;;4918716;28;93339;-71
2021/01/24 07:50:14;;;;;;;26.03;19.03;;;4.80;82.00;;;;;;4900856;28;92105;-71
2021/01/24 07:52:41;;;;;;;22.23;18.20;;;4.80;81.50;;;;;;4885606;28;92145;-71
2021/01/24 07:55:08;;;;;;;22.10;17.90;;;4.80;81.40;;;;;;4884467;28;96453;-71
2021/01/24 07:57:34;;;;;;;22.10;17.67;;;4.80;81.30;;;;;;4918004;28;93579;-71
2021/01/24 08:00:03;;;;;;;22.07;18.67;;;4.80;81.30;;;;;;4917517;28;91951;-71
2021/01/24 08:02:39;;;;;;;23.03;16.23;;;4.80;81.20;;;;;;4900756;28;91350;-71
2021/01/24 08:05:07;;;;;;;20.93;16.10;;;4.90;81.00;;;;;;4921055;28;93219;-71
2021/01/24 08:07:33;;;;;;;21.23;15.93;;;4.90;80.80;;;;;;4904360;28;96176;-71
2021/01/24 08:09:59;;;;;;;21.53;15.90;;;4.90;80.80;;;;;;4887435;28;92797;-71
2021/01/24 08:12:25;;;;;;;26.27;17.37;;;4.90;80.60;;;;;;4922191;28;92084;-71
2021/01/24 08:14:53;;;;;;;43.20;21.03;;;5.00;80.50;;;;;;4904286;28;96506;-71
2021/01/24 08:17:21;;;;;;;58.10;25.47;;;5.00;80.30;;;;;;4887698;28;96170;-71
2021/01/24 08:19:49;;;;;;;58.23;25.40;;;5.00;80.30;;;;;;4921366;28;92158;-71
2021/01/24 08:22:15;;;;;;;45.43;21.87;;;5.10;80.30;;;;;;4903901;28;92603;-71
2021/01/24 08:24:41;;;;;;;41.60;21.63;;;5.10;80.10;;;;;;4904054;28;94890;-71
2021/01/24 08:27:08;;;;;;;31.40;19.97;;;5.20;79.60;;;;;;4887627;28;96127;-71
2021/01/24 08:29:37;;;;;;;26.53;18.37;;;5.30;79.30;;;;;;4904610;28;92756;-71
2021/01/24 08:32:05;;;;;;;29.20;18.27;;;5.30;79.00;;;;;;4887553;28;92017;-71
2021/01/24 08:34:33;;;;;;;23.87;17.37;;;5.40;78.80;;;;;;4903366;28;97891;-71
2021/01/24 08:37:00;;;;;;;27.13;17.23;;;5.40;78.60;;;;;;4903556;28;93945;-71
2021/01/24 08:39:27;;;;;;;22.17;15.87;;;5.50;78.30;;;;;;4904184;28;92083;-71
2021/01/24 08:41:53;;;;;;;15.80;12.30;;;5.60;78.00;;;;;;4904334;28;92192;-71
2021/01/24 08:44:20;;;;;;;12.70;10.70;;;5.70;77.70;;;;;;4920511;28;92695;-71
2021/01/24 08:46:53;;;;;;;15.90;12.37;;;5.70;77.00;;;;;;4921288;28;92625;-71
2021/01/24 08:49:22;;;;;;;15.60;12.23;;;5.80;77.30;;;;;;4902972;28;91980;-71
2021/01/24 08:52:03;;;;;;;18.47;12.33;;;5.90;76.80;;;;;;4921377;28;91427;-71
2021/01/24 08:54:31;;;;;;;24.23;15.90;;;6.00;76.70;;;;;;4903764;28;95362;-71
2021/01/24 08:57:11;;;;;;;29.27;19.07;;;6.10;76.00;;;;;;4887391;28;95978;-71
2021/01/24 08:59:39;;;;;;;17.57;12.30;;;6.10;76.10;;;;;;4920819;28;92823;-71
2021/01/24 09:02:06;;;;;;;13.30;10.23;;;6.10;75.80;;;;;;4903202;28;92152;-71
2021/01/24 09:04:34;;;;;;;12.63;9.93;;;6.20;75.50;;;;;;4903486;28;96796;-71
2021/01/24 09:07:10;;;;;;;15.87;11.20;;;6.10;75.30;;;;;;4921275;28;92344;-71
2021/01/24 09:09:39;;;;;;;51.77;29.47;;;6.20;75.30;;;;;;4903763;28;92459;-71
2021/01/24 09:12:07;;;;;;;36.70;22.13;;;6.20;75.40;;;;;;4920236;28;92081;-71
2021/01/24 09:14:33;;;;;;;20.03;15.13;;;6.20;74.80;;;;;;4902255;28;96820;-71
2021/01/24 09:17:14;;;;;;;19.73;15.33;;;6.30;74.60;;;;;;4903231;28;96284;-71
2021/01/24 09:19:46;;;;;;;19.53;14.60;;;6.20;74.70;;;;;;4903642;28;92094;-71
2021/01/24 09:22:14;;;;;;;16.73;12.48;;;6.00;75.50;;;;;;4902763;28;92059;-71
2021/01/24 09:24:40;;;;;;;15.53;12.97;;;6.00;76.10;;;;;;4920160;28;94249;-71
2021/01/24 09:27:08;;;;;;;18.57;13.50;;;6.00;76.50;;;;;;4902663;28;93525;-71
2021/01/24 09:29:38;;;;;;;16.67;12.17;;;6.00;76.30;;;;;;4920814;28;93767;-71
2021/01/24 09:32:04;;;;;;;15.43;11.70;;;6.00;75.20;;;;;;4902622;28;92107;-71
2021/01/24 09:34:30;;;;;;;18.67;13.50;;;6.00;75.50;;;;;;4887217;28;96283;-71
2021/01/24 09:36:56;;;;;;;16.27;12.97;;;6.00;76.20;;;;;;4902960;28;95959;-71
2021/01/24 09:39:23;;;;;;;18.67;14.03;;;6.00;75.80;;;;;;4919677;28;91975;-71
2021/01/24 09:41:49;;;;;;;22.87;16.17;;;6.10;75.60;;;;;;4903189;28;91457;-71
2021/01/24 09:44:15;;;;;;;30.53;18.53;;;6.20;75.50;;;;;;4919600;28;92657;-71
2021/01/24 09:46:41;;;;;;;34.43;18.00;;;6.10;75.70;;;;;;4920262;28;92939;-71
2021/01/24 09:49:07;;;;;;;20.03;13.87;;;6.10;75.70;;;;;;4901678;28;92859;-72
2021/01/24 09:51:33;;;;;;;27.30;15.90;;;6.20;76.00;;;;;;4903245;28;92058;-71
2021/01/24 09:54:00;;;;;;;26.10;15.20;;;6.20;75.60;;;;;;4920276;28;92805;-71
2021/01/24 09:56:27;;;;;;;16.40;12.90;;;6.30;74.60;;;;;;4902557;28;92843;-71
2021/01/24 09:58:54;;;;;;;17.93;13.53;;;6.30;74.60;;;;;;4902904;28;92132;-71
2021/01/24 10:01:21;;;;;;;19.60;14.27;;;6.30;74.50;;;;;;4902492;28;92350;-71
2021/01/24 10:03:47;;;;;;;20.63;14.30;;;6.40;74.60;;;;;;4902736;28;93828;-71
2021/01/24 10:06:15;;;;;;;42.13;21.60;;;6.50;74.60;;;;;;4901992;28;96690;-71
2021/01/24 10:08:40;;;;;;;27.67;18.63;;;6.60;73.90;;;;;;4920234;28;92495;-71
2021/01/24 10:11:06;;;;;;;21.53;16.50;;;6.80;72.90;;;;;;4902147;28;92152;-72
2021/01/24 10:13:32;;;;;;;24.27;15.97;;;6.80;72.60;;;;;;4885981;28;97254;-71
2021/01/24 10:15:58;;;;;;;28.43;18.43;;;6.80;72.00;;;;;;4886415;28;97231;-71
2021/01/24 10:18:24;;;;;;;26.30;18.13;;;6.70;72.40;;;;;;4919404;28;92011;-71
2021/01/24 10:20:50;;;;;;;28.50;20.27;;;6.50;72.80;;;;;;4902719;28;92125;-71
2021/01/24 10:23:20;;;;;;;36.80;23.47;;;6.60;73.50;;;;;;4901799;28;92652;-71
2021/01/24 10:25:47;;;;;;;42.37;24.70;;;6.60;72.80;;;;;;4902122;28;92965;-71
2021/01/24 10:28:13;;;;;;;35.47;23.37;;;6.80;72.00;;;;;;4901994;28;91994;-71
2021/01/24 10:30:39;;;;;;;36.63;24.50;;;6.80;72.30;;;;;;4902159;28;91595;-71
2021/01/24 10:33:05;;;;;;;33.27;21.07;;;7.00;72.10;;;;;;4885837;28;96813;-71
2021/01/24 10:35:31;;;;;;;31.57;21.07;;;7.10;72.00;;;;;;4919265;28;93388;-71
2021/01/24 10:37:57;;;;;;;27.20;18.57;;;7.20;70.50;;;;;;4901933;28;92976;-71
2021/01/24 10:40:23;;;;;;;26.17;18.20;;;7.50;69.20;;;;;;4901947;28;92102;-71
2021/01/24 10:42:48;;;;;;;24.27;18.17;;;7.60;68.40;;;;;;4902428;28;93116;-72
2021/01/24 10:45:14;;;;;;;22.77;17.50;;;7.60;67.80;;;;;;4918755;28;93512;-71
2021/01/24 10:47:40;;;;;;;26.67;19.10;;;7.50;68.40;;;;;;4919777;28;92263;-71
2021/01/24 10:50:08;;;;;;;57.90;27.33;;;7.30;68.10;;;;;;4886001;28;92611;-70
2021/01/24 10:52:34;;;;;;;48.53;29.30;;;7.20;68.90;;;;;;4901657;28;96650;-71
2021/01/24 10:55:00;;;;;;;36.13;23.57;;;7.10;69.50;;;;;;4886406;28;96138;-71
2021/01/24 10:57:26;;;;;;;31.40;21.00;;;7.10;70.90;;;;;;4901171;28;92010;-71
2021/01/24 10:59:52;;;;;;;34.17;23.87;;;7.20;70.80;;;;;;4902026;28;92238;-71
2021/01/24 11:02:18;;;;;;;32.00;21.80;;;7.30;69.90;;;;;;4900746;28;93921;-72
2021/01/24 11:04:44;;;;;;;28.43;19.67;;;7.30;69.40;;;;;;4919157;28;93356;-71
2021/01/24 11:07:10;;;;;;;28.83;19.67;;;7.20;68.80;;;;;;4901482;28;91957;-72
2021/01/24 11:09:36;;;;;;;29.50;21.23;;;7.10;69.30;;;;;;4886064;28;92096;-71
2021/01/24 11:12:02;;;;;;;28.50;17.80;;;7.00;70.20;;;;;;4902122;28;92814;-71
2021/01/24 11:14:28;;;;;;;29.73;19.77;;;6.90;69.20;;;;;;4884891;28;95970;-71
2021/01/24 11:16:54;;;;;;;27.70;18.90;;;6.80;70.30;;;;;;4886096;28;91956;-71
2021/01/24 11:19:20;;;;;;;23.40;17.47;;;6.60;71.20;;;;;;4884646;28;91438;-71
2021/01/24 11:21:46;;;;;;;22.53;15.70;;;6.60;71.70;;;;;;4901457;28;93522;-71
2021/01/24 11:24:12;;;;;;;22.77;15.20;;;6.60;72.10;;;;;;4918163;28;91813;-71
2021/01/24 11:26:38;;;;;;;18.57;13.27;;;6.70;71.60;;;;;;4901648;28;93470;-71
2021/01/24 11:29:05;;;;;;;21.93;15.27;;;6.80;70.20;;;;;;4901790;28;92212;-71
2021/01/24 11:31:32;;;;;;;21.87;15.00;;;6.70;70.10;;;;;;4884608;28;96227;-71
2021/01/24 11:33:58;;;;;;;20.60;13.53;;;6.50;71.10;;;;;;4885469;28;95520;-72
2021/01/24 11:36:24;;;;;;;22.10;13.17;;;6.40;72.00;;;;;;4900932;28;92127;-71
2021/01/24 11:38:50;;;;;;;29.60;20.07;;;6.40;72.60;;;;;;4903557;28;92474;-72
2021/01/24 11:41:15;;;;;;;25.30;18.03;;;6.30;73.30;;;;;;4921353;28;92762;-72
2021/01/24 11:43:41;;;;;;;25.10;17.00;;;6.40;73.10;;;;;;4889024;28;95805;-71
2021/01/24 11:46:07;;;;;;;28.50;18.00;;;6.70;73.20;;;;;;4905081;28;92229;-71
2021/01/24 11:48:33;;;;;;;29.17;17.17;;;6.90;72.70;;;;;;4921562;28;92870;-72
2021/01/24 11:50:59;;;;;;;26.27;17.40;;;7.20;71.30;;;;;;4921553;28;93763;-72
2021/01/24 11:53:25;;;;;;;26.93;18.27;;;7.20;70.70;;;;;;4903616;28;97035;-72
2021/01/24 11:55:54;;;;;;;25.63;18.20;;;7.20;70.60;;;;;;4888935;28;91967;-72
2021/01/24 11:58:20;;;;;;;23.10;17.97;;;7.10;70.50;;;;;;4903944;28;92209;-72
2021/01/24 12:00:47;;;;;;;23.00;16.67;;;7.10;70.10;;;;;;4921746;28;94793;-72
2021/01/24 12:03:13;;;;;;;24.37;17.87;;;7.20;69.70;;;;;;4903992;28;96641;-72
2021/01/24 12:05:39;;;;;;;25.43;18.50;;;7.20;69.30;;;;;;4921988;28;91873;-72
2021/01/24 12:08:06;;;;;;;21.97;16.40;;;7.20;69.40;;;;;;4889106;28;91428;-72
2021/01/24 12:10:33;;;;;;;23.10;16.13;;;7.10;69.40;;;;;;4902987;28;93717;-72
2021/01/24 12:12:59;;;;;;;20.23;15.87;;;6.90;69.90;;;;;;4904405;28;92473;-72
2021/01/24 12:15:25;;;;;;;23.80;17.10;;;6.80;70.70;;;;;;4903517;28;93034;-72
2021/01/24 12:17:51;;;;;;;21.37;16.37;;;6.80;71.50;;;;;;4904939;28;92148;-72
2021/01/24 12:20:17;;;;;;;24.13;18.03;;;6.90;71.80;;;;;;4902840;28;96259;-72
2021/01/24 12:22:42;;;;;;;22.80;17.03;;;7.10;71.50;;;;;;4904016;28;95607;-72
2021/01/24 12:25:09;;;;;;;25.30;18.57;;;7.20;70.70;;;;;;4904353;28;92245;-72
2021/01/24 12:27:35;;;;;;;22.73;17.20;;;7.30;71.30;;;;;;4887579;28;92552;-72
2021/01/24 12:30:03;;;;;;;21.63;15.60;;;7.50;71.50;;;;;;4904176;28;93350;-72
2021/01/24 12:32:28;;;;;;;23.70;18.33;;;7.40;69.20;;;;;;4887548;28;94966;-72
2021/01/24 12:34:54;;;;;;;22.40;17.17;;;7.10;70.80;;;;;;4921756;28;92024;-72
2021/01/24 12:37:20;;;;;;;23.03;17.10;;;6.90;70.90;;;;;;4903420;28;92097;-72
2021/01/24 12:39:46;;;;;;;24.70;18.50;;;6.80;72.20;;;;;;4903612;28;93600;-72
2021/01/24 12:42:12;;;;;;;23.57;15.80;;;6.80;72.90;;;;;;4903637;28;96461;-72
2021/01/24 12:44:37;;;;;;;23.73;17.57;;;6.80;72.60;;;;;;4920854;28;91932;-72